Etusivu
METAR-TAF:

METAR-TAF

Lentoasemat :

Gilze en Rijen, Alankomaat

Leveyspiiri: 51-34N, Pituuspiiri: 004-56E, korkeus merenpinnasta: 15 m

Tämänhetkinen sää

Tämä raportti tehtiin 29 minuuttia sitten, kello 18.25 UTC
Tuuli 12 kn koillisesta, vaihdellen luoteen ja idän/koillisen välillä
Lämpötila 18°C
Kosteus 45%
Ilmanpaine 1030 hPa
Näkyvyys 10 km tai enemmän
ei pilviä alle 1500 m:ssä eikä cumulonimbus-pilviä

METAR: EHGR 281825Z AUTO 01014KT 320V060 9999 OVC130 18/06 Q1030 BLU 04012KT CAVOK

Aika: 20:54 (18:54 UTC)

Sääennuste

Tämä raportti tehtiin 2 tuntia ja 9 minuuttia sitten, kello 16.45 UTC
Ennuste voimassa 28. päivästä klo 17 UTC - 29. päivään klo 05 UTC
Tuuli 11 kn pohjoisesta/koillisesta
Näkyvyys 10 km tai enemmän
ei pilviä alle 1500 m:ssä eikä cumulonimbus-pilviä
Tulossa
28. päivästä klo 19 UTC - 28. päivään klo 22 UTC
Tuuli 6 kn koillisesta

TAF: EHGR 281645Z 2817/2905 03011KT CAVOK BECMG 2819/2822 04006KT

Säähavainnot ja -ennusteet yli 4000 lentoasemalta (METAR- ja TAF-raportit).

Käytössä olevat sääasemat on merkitty karttaan keltaisilla ja punaisilla pisteillä.

Aseta hiiri pisteen päälle nähdäksesi sääaseman nimen.

Klikkaa sitten nähdäksesi säähavainnot ja -ennusteet.

Kartan vaihtaminen: klikkaa mustalla rastilla varustettuja vihreitä pisteitä, niin voit zoomata sisään; viivalla varustettua vihreää pistettä, niin voit zoomata ulos tai vihreitä nuolia, niin pääset viereisille kartoille.


METAR-TAF: